Terminal Aerodrome Forecast
Issued by NWS Springfield, MO

Home | Current Version | Previous Version | Text Only | Print | Product List | Glossary On
Versions: 1 2 3 4 5 6 7 8 9 10 11 12 13 14 15 16 17 18 19 20 21 22 23 24 25 26 27
000
FTUS43 KSGF 262137 AAB
TAFSGF
TAF AMD
KSGF 262137Z 2622/2718 12005KT P6SM VCTS SCT030CB BKN080
      TEMPO 2622/2701 5SM -TSRA BR BKN030CB OVC050
     FM270300 11004KT P6SM VCTS BKN040CB
     FM271100 13004KT P6SM BKN150 PROB30 2711/2712 2SM TSRA OVC040CB
     FM271400 16005KT P6SM BKN250=

USA.gov is the U.S. government's official web portal to all federal, state and local government web resources and services.